sensor_id;sensor_type;location;lat;lon;timestamp;P1;durP1;ratioP1;P2;durP2;ratioP2
81591;SDS011;71014;53.394;6.724;2023-08-12T00:00:15;21.98;;;13.77;;
81591;SDS011;71014;53.394;6.724;2023-08-12T00:02:43;21.17;;;14.60;;
81591;SDS011;71014;53.394;6.724;2023-08-12T00:05:10;19.17;;;13.32;;
81591;SDS011;71014;53.394;6.724;2023-08-12T00:07:36;25.33;;;13.45;;
81591;SDS011;71014;53.394;6.724;2023-08-12T00:10:03;20.08;;;13.90;;
81591;SDS011;71014;53.394;6.724;2023-08-12T00:12:32;21.63;;;12.00;;
81591;SDS011;71014;53.394;6.724;2023-08-12T00:14:59;16.80;;;11.85;;
81591;SDS011;71014;53.394;6.724;2023-08-12T00:17:25;16.52;;;11.45;;
81591;SDS011;71014;53.394;6.724;2023-08-12T00:22:17;17.88;;;11.05;;
81591;SDS011;71014;53.394;6.724;2023-08-12T00:24:43;19.65;;;12.32;;
81591;SDS011;71014;53.394;6.724;2023-08-12T00:27:10;20.33;;;11.57;;
81591;SDS011;71014;53.394;6.724;2023-08-12T00:32:02;20.02;;;12.05;;
81591;SDS011;71014;53.394;6.724;2023-08-12T00:34:28;17.30;;;10.88;;
81591;SDS011;71014;53.394;6.724;2023-08-12T00:36:54;15.85;;;10.48;;
81591;SDS011;71014;53.394;6.724;2023-08-12T00:39:20;13.15;;;9.90;;
81591;SDS011;71014;53.394;6.724;2023-08-12T00:41:46;20.70;;;10.20;;
81591;SDS011;71014;53.394;6.724;2023-08-12T00:44:12;14.65;;;9.55;;
81591;SDS011;71014;53.394;6.724;2023-08-12T00:46:38;15.82;;;10.18;;
81591;SDS011;71014;53.394;6.724;2023-08-12T00:49:05;13.18;;;8.63;;
81591;SDS011;71014;53.394;6.724;2023-08-12T00:51:31;13.82;;;8.63;;
81591;SDS011;71014;53.394;6.724;2023-08-12T00:53:57;13.23;;;8.15;;
81591;SDS011;71014;53.394;6.724;2023-08-12T00:56:24;13.18;;;8.85;;
81591;SDS011;71014;53.394;6.724;2023-08-12T00:58:50;15.40;;;8.20;;
81591;SDS011;71014;53.394;6.724;2023-08-12T01:01:16;13.27;;;7.82;;
81591;SDS011;71014;53.394;6.724;2023-08-12T01:03:43;12.88;;;8.50;;
81591;SDS011;71014;53.394;6.724;2023-08-12T01:06:09;15.25;;;8.18;;
81591;SDS011;71014;53.394;6.724;2023-08-12T01:08:35;12.85;;;8.23;;
81591;SDS011;71014;53.394;6.724;2023-08-12T01:11:12;13.82;;;8.30;;
81591;SDS011;71014;53.394;6.724;2023-08-12T01:13:57;16.92;;;9.52;;
81591;SDS011;71014;53.394;6.724;2023-08-12T01:16:25;13.35;;;7.68;;
81591;SDS011;71014;53.394;6.724;2023-08-12T01:18:54;15.55;;;8.05;;
81591;SDS011;71014;53.394;6.724;2023-08-12T01:21:21;14.45;;;8.93;;
81591;SDS011;71014;53.394;6.724;2023-08-12T01:23:47;17.15;;;8.68;;
81591;SDS011;71014;53.394;6.724;2023-08-12T01:26:13;14.85;;;8.65;;
81591;SDS011;71014;53.394;6.724;2023-08-12T01:28:39;14.82;;;8.07;;
81591;SDS011;71014;53.394;6.724;2023-08-12T01:31:08;11.75;;;7.70;;
81591;SDS011;71014;53.394;6.724;2023-08-12T01:33:55;17.58;;;8.30;;
81591;SDS011;71014;53.394;6.724;2023-08-12T01:36:22;16.20;;;8.48;;
81591;SDS011;71014;53.394;6.724;2023-08-12T01:38:51;12.25;;;7.72;;
81591;SDS011;71014;53.394;6.724;2023-08-12T01:41:17;10.85;;;7.35;;
81591;SDS011;71014;53.394;6.724;2023-08-12T01:43:44;10.98;;;7.30;;
81591;SDS011;71014;53.394;6.724;2023-08-12T01:46:10;13.07;;;7.97;;
81591;SDS011;71014;53.394;6.724;2023-08-12T01:48:36;9.55;;;7.13;;
81591;SDS011;71014;53.394;6.724;2023-08-12T01:51:02;16.35;;;7.25;;
81591;SDS011;71014;53.394;6.724;2023-08-12T01:53:28;10.52;;;7.13;;
81591;SDS011;71014;53.394;6.724;2023-08-12T01:55:54;9.32;;;6.25;;
81591;SDS011;71014;53.394;6.724;2023-08-12T01:58:20;11.13;;;5.97;;
81591;SDS011;71014;53.394;6.724;2023-08-12T02:00:47;11.98;;;7.97;;
81591;SDS011;71014;53.394;6.724;2023-08-12T02:03:13;12.23;;;5.93;;
81591;SDS011;71014;53.394;6.724;2023-08-12T02:05:39;14.90;;;6.38;;
81591;SDS011;71014;53.394;6.724;2023-08-12T02:08:06;10.63;;;6.43;;
81591;SDS011;71014;53.394;6.724;2023-08-12T02:10:32;11.25;;;5.88;;
81591;SDS011;71014;53.394;6.724;2023-08-12T02:12:58;8.02;;;4.85;;
81591;SDS011;71014;53.394;6.724;2023-08-12T02:15:24;9.10;;;5.72;;
81591;SDS011;71014;53.394;6.724;2023-08-12T02:17:50;9.50;;;5.13;;
81591;SDS011;71014;53.394;6.724;2023-08-12T02:20:16;10.75;;;5.63;;
81591;SDS011;71014;53.394;6.724;2023-08-12T02:22:43;10.18;;;5.60;;
81591;SDS011;71014;53.394;6.724;2023-08-12T02:25:09;10.45;;;5.63;;
81591;SDS011;71014;53.394;6.724;2023-08-12T02:27:35;7.60;;;5.05;;
81591;SDS011;71014;53.394;6.724;2023-08-12T02:30:01;10.57;;;5.28;;
81591;SDS011;71014;53.394;6.724;2023-08-12T02:32:27;8.48;;;5.13;;
81591;SDS011;71014;53.394;6.724;2023-08-12T02:34:53;9.30;;;4.78;;
81591;SDS011;71014;53.394;6.724;2023-08-12T02:37:19;8.82;;;4.70;;
81591;SDS011;71014;53.394;6.724;2023-08-12T02:39:45;8.00;;;4.72;;
81591;SDS011;71014;53.394;6.724;2023-08-12T02:42:11;5.82;;;4.38;;
81591;SDS011;71014;53.394;6.724;2023-08-12T02:44:37;9.60;;;4.38;;
81591;SDS011;71014;53.394;6.724;2023-08-12T02:47:03;8.15;;;4.03;;
81591;SDS011;71014;53.394;6.724;2023-08-12T02:49:29;11.63;;;5.65;;
81591;SDS011;71014;53.394;6.724;2023-08-12T02:51:56;9.57;;;5.15;;
81591;SDS011;71014;53.394;6.724;2023-08-12T02:54:22;9.77;;;5.05;;
81591;SDS011;71014;53.394;6.724;2023-08-12T02:56:49;8.63;;;4.97;;
81591;SDS011;71014;53.394;6.724;2023-08-12T02:59:15;12.15;;;5.70;;
81591;SDS011;71014;53.394;6.724;2023-08-12T03:01:41;9.90;;;5.57;;
81591;SDS011;71014;53.394;6.724;2023-08-12T03:04:08;9.18;;;5.43;;
81591;SDS011;71014;53.394;6.724;2023-08-12T03:06:34;8.25;;;4.70;;
81591;SDS011;71014;53.394;6.724;2023-08-12T03:09:00;9.27;;;5.75;;
81591;SDS011;71014;53.394;6.724;2023-08-12T03:11:26;9.32;;;4.88;;
81591;SDS011;71014;53.394;6.724;2023-08-12T03:13:52;10.45;;;5.57;;
81591;SDS011;71014;53.394;6.724;2023-08-12T03:16:18;8.20;;;4.38;;
81591;SDS011;71014;53.394;6.724;2023-08-12T03:18:44;8.45;;;5.07;;
81591;SDS011;71014;53.394;6.724;2023-08-12T03:21:10;11.73;;;4.60;;
81591;SDS011;71014;53.394;6.724;2023-08-12T03:23:36;9.52;;;5.30;;
81591;SDS011;71014;53.394;6.724;2023-08-12T03:26:03;11.95;;;5.40;;
81591;SDS011;71014;53.394;6.724;2023-08-12T03:28:29;8.10;;;4.25;;
81591;SDS011;71014;53.394;6.724;2023-08-12T03:30:55;7.72;;;5.00;;
81591;SDS011;71014;53.394;6.724;2023-08-12T03:33:22;8.20;;;3.97;;
81591;SDS011;71014;53.394;6.724;2023-08-12T03:35:48;8.35;;;4.18;;
81591;SDS011;71014;53.394;6.724;2023-08-12T03:38:14;8.38;;;4.28;;
81591;SDS011;71014;53.394;6.724;2023-08-12T03:40:41;5.97;;;4.05;;
81591;SDS011;71014;53.394;6.724;2023-08-12T03:43:07;8.00;;;5.55;;
81591;SDS011;71014;53.394;6.724;2023-08-12T03:45:40;7.38;;;4.18;;
81591;SDS011;71014;53.394;6.724;2023-08-12T03:48:06;7.55;;;5.10;;
81591;SDS011;71014;53.394;6.724;2023-08-12T03:50:33;8.73;;;4.85;;
81591;SDS011;71014;53.394;6.724;2023-08-12T03:53:00;7.10;;;5.30;;
81591;SDS011;71014;53.394;6.724;2023-08-12T03:55:25;9.30;;;4.53;;
81591;SDS011;71014;53.394;6.724;2023-08-12T03:57:51;8.23;;;5.13;;
81591;SDS011;71014;53.394;6.724;2023-08-12T04:00:17;10.20;;;5.95;;
81591;SDS011;71014;53.394;6.724;2023-08-12T04:02:43;12.48;;;5.32;;
81591;SDS011;71014;53.394;6.724;2023-08-12T04:05:09;10.95;;;5.78;;
81591;SDS011;71014;53.394;6.724;2023-08-12T04:07:36;11.65;;;5.72;;
81591;SDS011;71014;53.394;6.724;2023-08-12T04:10:02;10.63;;;5.80;;
81591;SDS011;71014;53.394;6.724;2023-08-12T04:12:28;9.32;;;5.40;;
81591;SDS011;71014;53.394;6.724;2023-08-12T04:14:54;9.45;;;4.82;;
81591;SDS011;71014;53.394;6.724;2023-08-12T04:17:20;10.90;;;6.00;;
81591;SDS011;71014;53.394;6.724;2023-08-12T04:19:46;9.15;;;4.88;;
81591;SDS011;71014;53.394;6.724;2023-08-12T04:22:12;8.40;;;5.50;;
81591;SDS011;71014;53.394;6.724;2023-08-12T04:24:38;12.90;;;6.50;;
81591;SDS011;71014;53.394;6.724;2023-08-12T04:27:04;10.57;;;5.18;;
81591;SDS011;71014;53.394;6.724;2023-08-12T04:29:30;8.85;;;5.30;;
81591;SDS011;71014;53.394;6.724;2023-08-12T04:31:56;8.32;;;5.50;;
81591;SDS011;71014;53.394;6.724;2023-08-12T04:34:23;9.15;;;5.47;;
81591;SDS011;71014;53.394;6.724;2023-08-12T04:36:49;14.07;;;6.18;;
81591;SDS011;71014;53.394;6.724;2023-08-12T04:39:15;10.45;;;5.70;;
81591;SDS011;71014;53.394;6.724;2023-08-12T04:41:41;10.07;;;6.35;;
81591;SDS011;71014;53.394;6.724;2023-08-12T04:44:07;7.80;;;5.50;;
81591;SDS011;71014;53.394;6.724;2023-08-12T04:46:33;10.07;;;6.05;;
81591;SDS011;71014;53.394;6.724;2023-08-12T04:48:59;11.23;;;5.38;;
81591;SDS011;71014;53.394;6.724;2023-08-12T04:51:25;8.63;;;5.35;;
81591;SDS011;71014;53.394;6.724;2023-08-12T04:53:51;9.57;;;5.50;;
81591;SDS011;71014;53.394;6.724;2023-08-12T04:56:17;8.80;;;4.80;;
81591;SDS011;71014;53.394;6.724;2023-08-12T04:58:44;11.82;;;6.00;;
81591;SDS011;71014;53.394;6.724;2023-08-12T05:01:09;9.45;;;6.43;;
81591;SDS011;71014;53.394;6.724;2023-08-12T05:03:35;9.73;;;6.25;;
81591;SDS011;71014;53.394;6.724;2023-08-12T05:06:03;11.82;;;6.00;;
81591;SDS011;71014;53.394;6.724;2023-08-12T05:08:29;11.52;;;6.63;;
81591;SDS011;71014;53.394;6.724;2023-08-12T05:10:55;12.05;;;5.90;;
81591;SDS011;71014;53.394;6.724;2023-08-12T05:13:21;12.48;;;6.05;;
81591;SDS011;71014;53.394;6.724;2023-08-12T05:15:48;10.77;;;6.65;;
81591;SDS011;71014;53.394;6.724;2023-08-12T05:18:15;10.35;;;5.93;;
81591;SDS011;71014;53.394;6.724;2023-08-12T05:20:41;9.05;;;5.95;;
81591;SDS011;71014;53.394;6.724;2023-08-12T05:23:07;12.13;;;6.50;;
81591;SDS011;71014;53.394;6.724;2023-08-12T05:25:33;12.43;;;6.95;;
81591;SDS011;71014;53.394;6.724;2023-08-12T05:27:59;8.63;;;5.75;;
81591;SDS011;71014;53.394;6.724;2023-08-12T05:30:25;12.88;;;7.55;;
81591;SDS011;71014;53.394;6.724;2023-08-12T05:32:51;10.52;;;6.65;;
81591;SDS011;71014;53.394;6.724;2023-08-12T05:35:17;11.85;;;7.35;;
81591;SDS011;71014;53.394;6.724;2023-08-12T05:37:43;15.02;;;8.25;;
81591;SDS011;71014;53.394;6.724;2023-08-12T05:40:09;13.07;;;8.45;;
81591;SDS011;71014;53.394;6.724;2023-08-12T05:42:36;12.43;;;7.47;;
81591;SDS011;71014;53.394;6.724;2023-08-12T05:45:02;10.63;;;7.03;;
81591;SDS011;71014;53.394;6.724;2023-08-12T05:47:29;15.95;;;8.20;;
81591;SDS011;71014;53.394;6.724;2023-08-12T05:49:55;13.13;;;6.80;;
81591;SDS011;71014;53.394;6.724;2023-08-12T05:52:21;15.20;;;9.27;;
81591;SDS011;71014;53.394;6.724;2023-08-12T05:54:47;11.13;;;7.10;;
81591;SDS011;71014;53.394;6.724;2023-08-12T05:57:13;12.68;;;7.95;;
81591;SDS011;71014;53.394;6.724;2023-08-12T05:59:39;12.82;;;7.90;;
81591;SDS011;71014;53.394;6.724;2023-08-12T06:02:05;12.38;;;8.32;;
81591;SDS011;71014;53.394;6.724;2023-08-12T06:04:31;13.05;;;9.07;;
81591;SDS011;71014;53.394;6.724;2023-08-12T06:06:57;10.63;;;7.88;;
81591;SDS011;71014;53.394;6.724;2023-08-12T06:09:23;12.93;;;7.97;;
81591;SDS011;71014;53.394;6.724;2023-08-12T06:11:49;11.43;;;7.22;;
81591;SDS011;71014;53.394;6.724;2023-08-12T06:14:15;12.98;;;7.45;;
81591;SDS011;71014;53.394;6.724;2023-08-12T06:16:41;14.88;;;8.63;;
81591;SDS011;71014;53.394;6.724;2023-08-12T06:19:07;15.25;;;8.05;;
81591;SDS011;71014;53.394;6.724;2023-08-12T06:21:33;13.10;;;6.88;;
81591;SDS011;71014;53.394;6.724;2023-08-12T06:23:59;12.77;;;8.07;;
81591;SDS011;71014;53.394;6.724;2023-08-12T06:26:25;11.88;;;7.63;;
81591;SDS011;71014;53.394;6.724;2023-08-12T06:28:51;13.32;;;8.60;;
81591;SDS011;71014;53.394;6.724;2023-08-12T06:31:17;12.05;;;7.45;;
81591;SDS011;71014;53.394;6.724;2023-08-12T06:33:43;14.35;;;7.20;;
81591;SDS011;71014;53.394;6.724;2023-08-12T06:36:09;12.23;;;6.85;;
81591;SDS011;71014;53.394;6.724;2023-08-12T06:38:35;9.35;;;7.15;;
81591;SDS011;71014;53.394;6.724;2023-08-12T06:41:01;12.88;;;8.68;;
81591;SDS011;71014;53.394;6.724;2023-08-12T06:43:27;11.45;;;7.43;;
81591;SDS011;71014;53.394;6.724;2023-08-12T06:45:53;14.43;;;8.13;;
81591;SDS011;71014;53.394;6.724;2023-08-12T06:48:19;12.95;;;7.80;;
81591;SDS011;71014;53.394;6.724;2023-08-12T06:50:45;12.30;;;6.30;;
81591;SDS011;71014;53.394;6.724;2023-08-12T06:53:11;10.77;;;7.28;;
81591;SDS011;71014;53.394;6.724;2023-08-12T06:55:43;10.85;;;6.85;;
81591;SDS011;71014;53.394;6.724;2023-08-12T06:58:09;9.95;;;6.45;;
81591;SDS011;71014;53.394;6.724;2023-08-12T07:00:35;15.82;;;8.82;;
81591;SDS011;71014;53.394;6.724;2023-08-12T07:03:01;12.05;;;7.78;;
81591;SDS011;71014;53.394;6.724;2023-08-12T07:05:26;15.65;;;8.30;;
81591;SDS011;71014;53.394;6.724;2023-08-12T07:07:53;11.70;;;7.32;;
81591;SDS011;71014;53.394;6.724;2023-08-12T07:10:19;12.30;;;6.78;;
81591;SDS011;71014;53.394;6.724;2023-08-12T07:12:44;14.52;;;7.43;;
81591;SDS011;71014;53.394;6.724;2023-08-12T07:15:11;11.13;;;6.30;;
81591;SDS011;71014;53.394;6.724;2023-08-12T07:17:37;13.55;;;6.40;;
81591;SDS011;71014;53.394;6.724;2023-08-12T07:20:03;9.82;;;6.07;;
81591;SDS011;71014;53.394;6.724;2023-08-12T07:22:29;12.65;;;6.57;;
81591;SDS011;71014;53.394;6.724;2023-08-12T07:24:55;12.27;;;7.20;;
81591;SDS011;71014;53.394;6.724;2023-08-12T07:27:21;12.73;;;6.68;;
81591;SDS011;71014;53.394;6.724;2023-08-12T07:29:47;10.60;;;7.70;;
81591;SDS011;71014;53.394;6.724;2023-08-12T07:32:13;11.57;;;7.05;;
81591;SDS011;71014;53.394;6.724;2023-08-12T07:34:39;13.65;;;7.78;;
81591;SDS011;71014;53.394;6.724;2023-08-12T07:37:05;11.98;;;7.47;;
81591;SDS011;71014;53.394;6.724;2023-08-12T07:39:31;14.85;;;8.02;;
81591;SDS011;71014;53.394;6.724;2023-08-12T07:41:57;12.35;;;7.97;;
81591;SDS011;71014;53.394;6.724;2023-08-12T07:44:23;14.32;;;8.10;;
81591;SDS011;71014;53.394;6.724;2023-08-12T07:46:49;16.10;;;7.75;;
81591;SDS011;71014;53.394;6.724;2023-08-12T07:49:15;15.45;;;9.63;;
81591;SDS011;71014;53.394;6.724;2023-08-12T07:51:42;12.98;;;8.10;;
81591;SDS011;71014;53.394;6.724;2023-08-12T07:54:08;13.98;;;8.90;;
81591;SDS011;71014;53.394;6.724;2023-08-12T07:56:34;14.38;;;8.98;;
81591;SDS011;71014;53.394;6.724;2023-08-12T07:59:00;16.17;;;8.60;;
81591;SDS011;71014;53.394;6.724;2023-08-12T08:01:26;16.05;;;9.25;;
81591;SDS011;71014;53.394;6.724;2023-08-12T08:03:52;13.73;;;8.27;;
81591;SDS011;71014;53.394;6.724;2023-08-12T08:06:18;11.85;;;8.02;;
81591;SDS011;71014;53.394;6.724;2023-08-12T08:08:44;13.93;;;8.57;;
81591;SDS011;71014;53.394;6.724;2023-08-12T08:11:10;11.98;;;8.38;;
81591;SDS011;71014;53.394;6.724;2023-08-12T08:13:36;13.27;;;8.63;;
81591;SDS011;71014;53.394;6.724;2023-08-12T08:16:02;15.82;;;8.98;;
81591;SDS011;71014;53.394;6.724;2023-08-12T08:18:28;15.20;;;9.40;;
81591;SDS011;71014;53.394;6.724;2023-08-12T08:20:54;16.02;;;9.45;;
81591;SDS011;71014;53.394;6.724;2023-08-12T08:23:20;16.02;;;8.70;;
81591;SDS011;71014;53.394;6.724;2023-08-12T08:25:46;13.90;;;9.00;;
81591;SDS011;71014;53.394;6.724;2023-08-12T08:28:12;15.32;;;10.15;;
81591;SDS011;71014;53.394;6.724;2023-08-12T08:30:38;18.67;;;8.82;;
81591;SDS011;71014;53.394;6.724;2023-08-12T08:33:04;15.48;;;8.68;;
81591;SDS011;71014;53.394;6.724;2023-08-12T08:35:31;12.38;;;9.57;;
81591;SDS011;71014;53.394;6.724;2023-08-12T08:37:57;17.05;;;9.38;;
81591;SDS011;71014;53.394;6.724;2023-08-12T08:40:23;14.38;;;9.70;;
81591;SDS011;71014;53.394;6.724;2023-08-12T08:42:51;14.27;;;9.45;;
81591;SDS011;71014;53.394;6.724;2023-08-12T08:45:18;16.10;;;9.98;;
81591;SDS011;71014;53.394;6.724;2023-08-12T08:47:45;18.25;;;10.85;;
81591;SDS011;71014;53.394;6.724;2023-08-12T08:50:12;16.77;;;11.65;;
81591;SDS011;71014;53.394;6.724;2023-08-12T08:52:39;14.73;;;10.25;;
81591;SDS011;71014;53.394;6.724;2023-08-12T08:55:07;17.40;;;11.70;;
81591;SDS011;71014;53.394;6.724;2023-08-12T08:57:33;15.35;;;10.70;;
81591;SDS011;71014;53.394;6.724;2023-08-12T08:59:59;18.70;;;10.40;;
81591;SDS011;71014;53.394;6.724;2023-08-12T09:02:25;16.77;;;10.52;;
81591;SDS011;71014;53.394;6.724;2023-08-12T09:04:51;14.35;;;10.80;;
81591;SDS011;71014;53.394;6.724;2023-08-12T09:07:18;18.08;;;11.63;;
81591;SDS011;71014;53.394;6.724;2023-08-12T09:12:13;17.88;;;12.13;;
81591;SDS011;71014;53.394;6.724;2023-08-12T09:14:39;18.20;;;11.77;;
81591;SDS011;71014;53.394;6.724;2023-08-12T09:17:05;19.73;;;11.52;;
81591;SDS011;71014;53.394;6.724;2023-08-12T09:19:32;16.35;;;11.45;;
81591;SDS011;71014;53.394;6.724;2023-08-12T09:21:58;20.15;;;13.27;;
81591;SDS011;71014;53.394;6.724;2023-08-12T09:24:24;20.23;;;12.60;;
81591;SDS011;71014;53.394;6.724;2023-08-12T09:26:51;23.77;;;15.10;;
81591;SDS011;71014;53.394;6.724;2023-08-12T09:29:17;20.15;;;13.60;;
81591;SDS011;71014;53.394;6.724;2023-08-12T09:31:43;17.92;;;12.43;;
81591;SDS011;71014;53.394;6.724;2023-08-12T09:34:10;22.42;;;14.30;;
81591;SDS011;71014;53.394;6.724;2023-08-12T09:36:36;24.83;;;15.88;;
81591;SDS011;71014;53.394;6.724;2023-08-12T09:39:08;21.63;;;12.95;;
81591;SDS011;71014;53.394;6.724;2023-08-12T09:41:34;20.52;;;14.00;;
81591;SDS011;71014;53.394;6.724;2023-08-12T09:44:04;30.23;;;15.23;;
81591;SDS011;71014;53.394;6.724;2023-08-12T09:46:32;22.75;;;14.10;;
81591;SDS011;71014;53.394;6.724;2023-08-12T09:48:58;21.98;;;14.43;;
81591;SDS011;71014;53.394;6.724;2023-08-12T09:51:24;22.52;;;13.00;;
81591;SDS011;71014;53.394;6.724;2023-08-12T09:56:17;16.30;;;11.57;;
81591;SDS011;71014;53.394;6.724;2023-08-12T09:58:44;19.65;;;14.48;;
81591;SDS011;71014;53.394;6.724;2023-08-12T10:01:13;20.90;;;13.27;;
81591;SDS011;71014;53.394;6.724;2023-08-12T10:03:39;19.60;;;12.40;;
81591;SDS011;71014;53.394;6.724;2023-08-12T10:06:07;23.67;;;13.60;;
81591;SDS011;71014;53.394;6.724;2023-08-12T10:08:33;21.00;;;13.82;;
81591;SDS011;71014;53.394;6.724;2023-08-12T10:11:01;23.67;;;14.38;;
81591;SDS011;71014;53.394;6.724;2023-08-12T10:13:27;25.55;;;15.30;;
81591;SDS011;71014;53.394;6.724;2023-08-12T10:15:54;23.58;;;14.57;;
81591;SDS011;71014;53.394;6.724;2023-08-12T10:20:46;23.00;;;14.10;;
81591;SDS011;71014;53.394;6.724;2023-08-12T10:23:16;24.65;;;14.15;;
81591;SDS011;71014;53.394;6.724;2023-08-12T10:25:43;18.88;;;13.73;;
81591;SDS011;71014;53.394;6.724;2023-08-12T10:28:12;21.20;;;13.18;;
81591;SDS011;71014;53.394;6.724;2023-08-12T10:30:39;25.92;;;14.68;;
81591;SDS011;71014;53.394;6.724;2023-08-12T10:33:07;19.17;;;14.00;;
81591;SDS011;71014;53.394;6.724;2023-08-12T10:37:59;20.85;;;14.23;;
81591;SDS011;71014;53.394;6.724;2023-08-12T10:40:25;24.17;;;14.60;;
81591;SDS011;71014;53.394;6.724;2023-08-12T10:42:51;27.23;;;17.27;;
81591;SDS011;71014;53.394;6.724;2023-08-12T10:45:17;21.73;;;15.25;;
81591;SDS011;71014;53.394;6.724;2023-08-12T10:48:44;26.13;;;16.90;;
81591;SDS011;71014;53.394;6.724;2023-08-12T10:50:43;22.70;;;15.80;;
81591;SDS011;71014;53.394;6.724;2023-08-12T10:55:48;26.23;;;16.85;;
81591;SDS011;71014;53.394;6.724;2023-08-12T10:58:40;20.42;;;14.48;;
81591;SDS011;71014;53.394;6.724;2023-08-12T11:03:31;21.40;;;14.02;;
81591;SDS011;71014;53.394;6.724;2023-08-12T11:06:00;25.40;;;16.38;;
81591;SDS011;71014;53.394;6.724;2023-08-12T11:08:26;18.85;;;14.85;;
81591;SDS011;71014;53.394;6.724;2023-08-12T11:10:54;15.63;;;13.23;;
81591;SDS011;71014;53.394;6.724;2023-08-12T11:13:20;17.33;;;13.90;;
81591;SDS011;71014;53.394;6.724;2023-08-12T11:15:47;16.58;;;11.43;;
81591;SDS011;71014;53.394;6.724;2023-08-12T11:18:16;11.27;;;9.30;;
81591;SDS011;71014;53.394;6.724;2023-08-12T11:20:42;10.40;;;6.93;;
81591;SDS011;71014;53.394;6.724;2023-08-12T11:25:35;9.73;;;7.32;;
81591;SDS011;71014;53.394;6.724;2023-08-12T11:28:01;11.18;;;8.02;;
81591;SDS011;71014;53.394;6.724;2023-08-12T11:30:27;7.95;;;7.05;;
81591;SDS011;71014;53.394;6.724;2023-08-12T11:35:20;6.07;;;4.20;;
81591;SDS011;71014;53.394;6.724;2023-08-12T11:37:47;5.65;;;4.32;;
81591;SDS011;71014;53.394;6.724;2023-08-12T11:40:14;4.07;;;3.25;;
81591;SDS011;71014;53.394;6.724;2023-08-12T11:42:41;4.32;;;2.92;;
81591;SDS011;71014;53.394;6.724;2023-08-12T11:45:07;3.97;;;3.55;;
81591;SDS011;71014;53.394;6.724;2023-08-12T11:50:01;2.85;;;1.90;;
81591;SDS011;71014;53.394;6.724;2023-08-12T11:52:28;3.50;;;2.20;;
81591;SDS011;71014;53.394;6.724;2023-08-12T11:57:22;2.58;;;2.38;;
81591;SDS011;71014;53.394;6.724;2023-08-12T11:59:48;2.40;;;1.80;;
81591;SDS011;71014;53.394;6.724;2023-08-12T12:02:14;3.63;;;1.90;;
81591;SDS011;71014;53.394;6.724;2023-08-12T12:07:16;1.67;;;1.50;;
81591;SDS011;71014;53.394;6.724;2023-08-12T12:09:43;1.67;;;1.48;;
81591;SDS011;71014;53.394;6.724;2023-08-12T12:12:09;3.08;;;1.75;;
81591;SDS011;71014;53.394;6.724;2023-08-12T12:17:06;2.83;;;1.73;;
81591;SDS011;71014;53.394;6.724;2023-08-12T12:19:33;4.38;;;1.98;;
81591;SDS011;71014;53.394;6.724;2023-08-12T12:22:01;4.18;;;2.15;;
81591;SDS011;71014;53.394;6.724;2023-08-12T12:24:28;4.95;;;2.13;;
81591;SDS011;71014;53.394;6.724;2023-08-12T12:26:54;4.50;;;1.90;;
81591;SDS011;71014;53.394;6.724;2023-08-12T12:29:22;4.13;;;2.20;;
81591;SDS011;71014;53.394;6.724;2023-08-12T12:34:14;4.90;;;1.98;;
81591;SDS011;71014;53.394;6.724;2023-08-12T12:39:06;3.17;;;1.85;;
81591;SDS011;71014;53.394;6.724;2023-08-12T12:41:33;4.43;;;1.90;;
81591;SDS011;71014;53.394;6.724;2023-08-12T12:43:59;6.50;;;2.88;;
81591;SDS011;71014;53.394;6.724;2023-08-12T12:46:29;6.57;;;1.90;;
81591;SDS011;71014;53.394;6.724;2023-08-12T12:48:55;4.38;;;2.03;;
81591;SDS011;71014;53.394;6.724;2023-08-12T12:51:21;6.20;;;2.40;;
81591;SDS011;71014;53.394;6.724;2023-08-12T12:53:47;4.07;;;1.75;;
81591;SDS011;71014;53.394;6.724;2023-08-12T12:56:13;7.55;;;2.90;;
81591;SDS011;71014;53.394;6.724;2023-08-12T12:58:39;5.25;;;1.80;;
81591;SDS011;71014;53.394;6.724;2023-08-12T13:01:05;6.00;;;2.10;;
81591;SDS011;71014;53.394;6.724;2023-08-12T13:03:31;4.88;;;2.30;;
81591;SDS011;71014;53.394;6.724;2023-08-12T13:08:24;4.63;;;2.50;;
81591;SDS011;71014;53.394;6.724;2023-08-12T13:10:50;5.57;;;2.97;;
81591;SDS011;71014;53.394;6.724;2023-08-12T13:15:42;4.50;;;2.53;;
81591;SDS011;71014;53.394;6.724;2023-08-12T13:18:09;4.25;;;1.95;;
81591;SDS011;71014;53.394;6.724;2023-08-12T13:20:35;3.08;;;1.55;;
81591;SDS011;71014;53.394;6.724;2023-08-12T13:25:31;2.22;;;1.20;;
81591;SDS011;71014;53.394;6.724;2023-08-12T13:27:58;4.35;;;1.48;;
81591;SDS011;71014;53.394;6.724;2023-08-12T13:30:24;5.75;;;2.30;;
81591;SDS011;71014;53.394;6.724;2023-08-12T13:32:50;4.72;;;1.63;;
81591;SDS011;71014;53.394;6.724;2023-08-12T13:35:17;3.85;;;1.38;;
81591;SDS011;71014;53.394;6.724;2023-08-12T13:40:08;8.90;;;2.13;;
81591;SDS011;71014;53.394;6.724;2023-08-12T13:42:36;3.92;;;1.83;;
81591;SDS011;71014;53.394;6.724;2023-08-12T13:45:02;6.68;;;2.33;;
81591;SDS011;71014;53.394;6.724;2023-08-12T13:47:29;6.10;;;1.80;;
81591;SDS011;71014;53.394;6.724;2023-08-12T13:49:55;4.40;;;1.60;;
81591;SDS011;71014;53.394;6.724;2023-08-12T13:54:47;6.05;;;2.50;;
81591;SDS011;71014;53.394;6.724;2023-08-12T13:57:13;6.25;;;2.00;;
81591;SDS011;71014;53.394;6.724;2023-08-12T13:59:39;6.25;;;2.08;;
81591;SDS011;71014;53.394;6.724;2023-08-12T14:02:08;6.80;;;2.45;;
81591;SDS011;71014;53.394;6.724;2023-08-12T14:09:26;6.78;;;3.17;;
81591;SDS011;71014;53.394;6.724;2023-08-12T14:11:53;8.13;;;3.08;;
81591;SDS011;71014;53.394;6.724;2023-08-12T14:14:19;5.47;;;2.80;;
81591;SDS011;71014;53.394;6.724;2023-08-12T14:16:45;9.55;;;2.75;;
81591;SDS011;71014;53.394;6.724;2023-08-12T14:19:11;4.15;;;3.05;;
81591;SDS011;71014;53.394;6.724;2023-08-12T14:21:37;6.10;;;2.55;;
81591;SDS011;71014;53.394;6.724;2023-08-12T14:24:03;8.43;;;3.03;;
81591;SDS011;71014;53.394;6.724;2023-08-12T14:26:29;10.48;;;3.15;;
81591;SDS011;71014;53.394;6.724;2023-08-12T14:28:55;4.10;;;2.22;;
81591;SDS011;71014;53.394;6.724;2023-08-12T14:31:21;7.88;;;2.80;;
81591;SDS011;71014;53.394;6.724;2023-08-12T14:33:47;6.30;;;2.80;;
81591;SDS011;71014;53.394;6.724;2023-08-12T14:36:13;6.55;;;2.63;;
81591;SDS011;71014;53.394;6.724;2023-08-12T14:38:39;8.77;;;2.42;;
81591;SDS011;71014;53.394;6.724;2023-08-12T14:41:05;10.18;;;2.85;;
81591;SDS011;71014;53.394;6.724;2023-08-12T14:43:31;6.72;;;2.90;;
81591;SDS011;71014;53.394;6.724;2023-08-12T14:45:57;7.63;;;2.47;;
81591;SDS011;71014;53.394;6.724;2023-08-12T14:48:23;5.28;;;1.83;;
81591;SDS011;71014;53.394;6.724;2023-08-12T14:50:50;5.57;;;1.60;;
81591;SDS011;71014;53.394;6.724;2023-08-12T14:53:16;6.85;;;2.20;;
81591;SDS011;71014;53.394;6.724;2023-08-12T14:55:42;5.95;;;1.90;;
81591;SDS011;71014;53.394;6.724;2023-08-12T14:58:08;4.47;;;1.33;;
81591;SDS011;71014;53.394;6.724;2023-08-12T15:00:34;3.83;;;1.80;;
81591;SDS011;71014;53.394;6.724;2023-08-12T15:03:00;6.28;;;1.67;;
81591;SDS011;71014;53.394;6.724;2023-08-12T15:05:26;6.53;;;2.00;;
81591;SDS011;71014;53.394;6.724;2023-08-12T15:07:52;4.88;;;1.73;;
81591;SDS011;71014;53.394;6.724;2023-08-12T15:10:18;4.60;;;1.45;;
81591;SDS011;71014;53.394;6.724;2023-08-12T15:12:44;3.55;;;1.60;;
81591;SDS011;71014;53.394;6.724;2023-08-12T15:15:10;5.07;;;1.77;;
81591;SDS011;71014;53.394;6.724;2023-08-12T15:17:36;5.90;;;2.13;;
81591;SDS011;71014;53.394;6.724;2023-08-12T15:20:02;8.07;;;2.22;;
81591;SDS011;71014;53.394;6.724;2023-08-12T15:22:30;5.70;;;1.60;;
81591;SDS011;71014;53.394;6.724;2023-08-12T15:24:56;4.43;;;2.03;;
81591;SDS011;71014;53.394;6.724;2023-08-12T15:27:22;4.68;;;1.77;;